createdAt,value
2023-04-13T00:01:47.714Z,25.43
2023-04-13T00:03:53.149Z,25.36
2023-04-13T00:05:58.472Z,25.33
2023-04-13T00:08:03.499Z,25.33
2023-04-13T00:10:08.507Z,25.29
2023-04-13T00:12:13.609Z,25.28
2023-04-13T00:14:18.601Z,25.26
2023-04-13T00:16:23.753Z,25.26
2023-04-13T00:18:28.774Z,25.22
2023-04-13T00:20:33.881Z,25.26
2023-04-13T00:22:38.892Z,25.27
2023-04-13T00:24:43.915Z,25.28
2023-04-13T00:26:48.894Z,25.32
2023-04-13T00:28:54.003Z,25.36
2023-04-13T00:30:59.262Z,25.42
2023-04-13T00:33:04.434Z,25.58
2023-04-13T00:35:09.496Z,25.43
2023-04-13T00:37:14.552Z,25.43
2023-04-13T00:39:19.571Z,25.5
2023-04-13T00:41:24.550Z,25.47
2023-04-13T00:43:29.583Z,25.52
2023-04-13T00:45:34.572Z,25.48
2023-04-13T00:47:39.679Z,25.54
2023-04-13T00:49:44.733Z,25.51
2023-04-13T00:51:49.765Z,25.51
2023-04-13T00:53:54.782Z,25.54
2023-04-13T00:55:59.832Z,25.6
2023-04-13T00:58:04.832Z,25.57
2023-04-13T01:00:09.958Z,25.56
2023-04-13T01:02:15.350Z,25.62
2023-04-13T01:04:20.567Z,25.62
2023-04-13T01:06:25.592Z,25.65
2023-04-13T01:08:30.708Z,25.69
2023-04-13T01:10:35.748Z,25.69
2023-04-13T01:12:40.750Z,25.69
2023-04-13T01:14:45.782Z,25.69
2023-04-13T01:16:50.757Z,25.67
2023-04-13T01:18:55.720Z,25.6
2023-04-13T01:21:00.766Z,25.66
2023-04-13T01:23:05.896Z,25.62
2023-04-13T01:25:10.909Z,25.6
2023-04-13T01:27:15.900Z,25.66
2023-04-13T01:29:20.918Z,25.67
2023-04-13T01:31:26.106Z,25.71
2023-04-13T01:33:31.236Z,25.7
2023-04-13T01:37:18.693Z,25.68
2023-04-13T01:39:23.690Z,25.74
2023-04-13T01:41:28.650Z,25.67
2023-04-13T01:43:33.657Z,25.69
2023-04-13T01:45:38.720Z,25.69
2023-04-13T01:47:43.855Z,25.74
2023-04-13T01:49:48.820Z,25.67
2023-04-13T01:51:53.884Z,25.67
2023-04-13T01:53:59.597Z,25.67
2023-04-13T01:56:04.722Z,25.64
2023-04-13T01:58:09.755Z,25.68
2023-04-13T02:00:14.866Z,25.63
2023-04-13T02:02:20.103Z,25.64
2023-04-13T02:04:25.576Z,25.68
2023-04-13T02:06:30.714Z,25.65
2023-04-13T02:08:36.078Z,25.67
2023-04-13T02:10:41.086Z,25.65
2023-04-13T02:12:46.109Z,25.64
2023-04-13T02:14:51.701Z,25.69
2023-04-13T02:16:56.835Z,25.68
2023-04-13T02:19:01.912Z,25.66
2023-04-13T02:21:06.946Z,25.66
2023-04-13T02:23:12.036Z,25.69
2023-04-13T02:25:17.067Z,25.71
2023-04-13T02:27:22.164Z,25.72
2023-04-13T02:29:27.132Z,25.7
2023-04-13T02:31:32.368Z,25.66
2023-04-13T02:33:37.398Z,25.67
2023-04-13T02:35:42.379Z,25.7
2023-04-13T02:37:47.367Z,25.73
2023-04-13T02:39:52.353Z,25.79
2023-04-13T02:41:57.345Z,25.82
2023-04-13T02:44:03.272Z,25.83
2023-04-13T02:46:08.440Z,25.83
2023-04-13T02:48:13.460Z,25.87
2023-04-13T02:50:18.471Z,25.87
2023-04-13T02:52:23.456Z,25.93
2023-04-13T02:54:28.444Z,26.01
2023-04-13T02:56:33.549Z,26.05
2023-04-13T02:58:38.527Z,26.15
2023-04-13T03:00:43.617Z,26.13
2023-04-13T03:02:49.281Z,26.16
2023-04-13T03:04:54.691Z,26.18
2023-04-13T03:06:59.724Z,26.21
2023-04-13T03:09:04.956Z,26.12
2023-04-13T03:11:09.953Z,26.11
2023-04-13T03:13:14.918Z,26.14
2023-04-13T03:15:19.881Z,26.14
2023-04-13T03:17:24.964Z,26.18
2023-04-13T03:19:30.110Z,26.14
2023-04-13T03:21:35.079Z,26.2
2023-04-13T03:23:40.084Z,26.21
2023-04-13T03:25:45.054Z,26.29
2023-04-13T03:27:50.005Z,26.31
2023-04-13T03:29:55.065Z,26.38
2023-04-13T03:32:00.054Z,26.45
2023-04-13T03:34:05.136Z,26.5
2023-04-13T03:36:10.116Z,26.53
2023-04-13T03:38:15.097Z,26.59
2023-04-13T03:40:20.105Z,26.64
2023-04-13T03:42:25.041Z,26.69
2023-04-13T03:44:30.063Z,26.71
2023-04-13T03:46:35.195Z,26.82
2023-04-13T03:48:40.232Z,26.89
2023-04-13T03:50:45.314Z,26.91
2023-04-13T03:52:50.337Z,27.04
2023-04-13T03:54:55.670Z,27
2023-04-13T03:57:00.732Z,27
2023-04-13T03:59:05.788Z,27.03
2023-04-13T04:01:10.790Z,27.08
2023-04-13T04:03:16.158Z,27.16
2023-04-13T04:05:21.707Z,27.17
2023-04-13T04:07:26.791Z,27.19
2023-04-13T04:09:31.847Z,27.22
2023-04-13T04:11:36.794Z,27.26
2023-04-13T04:13:41.826Z,27.23
2023-04-13T04:15:46.874Z,27.25
2023-04-13T04:17:52.001Z,27.27
2023-04-13T04:19:57.123Z,27.32
2023-04-13T04:22:02.099Z,27.41
2023-04-13T04:24:07.178Z,27.45
2023-04-13T04:26:12.160Z,27.47
2023-04-13T04:28:17.138Z,27.51
2023-04-13T04:30:22.213Z,27.42
2023-04-13T04:32:27.560Z,27.58
2023-04-13T04:34:32.723Z,27.53
2023-04-13T04:36:37.766Z,27.58
2023-04-13T04:38:42.748Z,27.56
2023-04-13T04:40:47.805Z,27.58
2023-04-13T04:42:52.763Z,27.68
2023-04-13T04:44:57.790Z,27.78
2023-04-13T04:47:02.856Z,27.75
2023-04-13T04:49:07.981Z,27.69
2023-04-13T04:51:12.994Z,27.69
2023-04-13T04:53:17.968Z,27.66
2023-04-13T04:55:22.975Z,27.61
2023-04-13T04:57:30.987Z,27.58
2023-04-13T04:59:35.964Z,27.57
2023-04-13T05:01:41.447Z,27.55
2023-04-13T05:03:46.511Z,27.48
2023-04-13T05:05:51.479Z,27.52
2023-04-13T05:07:56.477Z,27.49
2023-04-13T05:10:01.457Z,27.51
2023-04-13T05:12:06.483Z,28.2
2023-04-13T05:14:11.462Z,28.93
2023-04-13T05:16:16.643Z,29.09
2023-04-13T05:18:21.658Z,29.4
2023-04-13T05:20:26.656Z,29.09
2023-04-13T05:22:31.659Z,28.94
2023-04-13T05:24:36.667Z,29.5
2023-04-13T05:26:41.640Z,29.28
2023-04-13T05:28:46.667Z,29.32
2023-04-13T05:30:51.636Z,29.14
2023-04-13T05:32:56.813Z,29.17
2023-04-13T05:35:01.935Z,28.7
2023-04-13T05:37:06.972Z,29.83
2023-04-13T05:39:11.969Z,28.76
2023-04-13T05:41:16.939Z,28.73
2023-04-13T05:43:25.100Z,28.83
2023-04-13T05:45:30.197Z,29.32
2023-04-13T05:47:35.396Z,30.32
2023-04-13T05:49:40.459Z,30.68
2023-04-13T05:51:45.542Z,29.79
2023-04-13T05:53:50.522Z,30.6
2023-04-13T05:55:55.524Z,30.7
2023-04-13T05:58:00.534Z,30.73
2023-04-13T06:00:05.561Z,30.44
2023-04-13T06:02:10.991Z,30.31
2023-04-13T06:04:16.770Z,30.82
2023-04-13T06:06:21.943Z,30.7
2023-04-13T06:08:29.337Z,31.01
2023-04-13T06:10:34.495Z,30.96
2023-04-13T06:12:39.541Z,30.72
2023-04-13T06:14:44.553Z,30.83
2023-04-13T06:16:49.736Z,30.4
2023-04-13T06:18:54.754Z,31.3
2023-04-13T06:20:59.699Z,30.69
2023-04-13T06:23:04.889Z,31.28
2023-04-13T06:25:09.871Z,30.51
2023-04-13T06:27:14.835Z,30.44
2023-04-13T06:29:19.896Z,31.02
2023-04-13T06:31:25.069Z,32.08
2023-04-13T06:33:30.137Z,32.11
2023-04-13T06:35:35.131Z,32.28
2023-04-13T06:37:40.131Z,32.59
2023-04-13T06:39:45.141Z,32.54
2023-04-13T06:41:50.221Z,32.79
2023-04-13T06:43:55.256Z,32.54
2023-04-13T06:46:00.579Z,32.69
2023-04-13T06:48:06.134Z,32.72
2023-04-13T06:50:11.148Z,32.6
2023-04-13T06:52:16.177Z,32.69
2023-04-13T06:54:21.188Z,32.65
2023-04-13T06:56:26.218Z,32.67
2023-04-13T06:58:31.194Z,32.43
2023-04-13T07:00:36.545Z,32.54
2023-04-13T07:02:42.119Z,32.6
2023-04-13T07:04:47.327Z,32.62
2023-04-13T07:06:52.524Z,32.42
2023-04-13T07:08:57.828Z,32.92
2023-04-13T07:11:03.132Z,33.18
2023-04-13T07:13:08.103Z,33.38
2023-04-13T07:15:13.077Z,33.16
2023-04-13T07:17:18.216Z,33.11
2023-04-13T07:19:23.229Z,33.09
2023-04-13T07:21:28.239Z,33.28
2023-04-13T07:23:33.230Z,33.17
2023-04-13T07:25:38.210Z,33.24
2023-04-13T07:27:43.304Z,33.24
2023-04-13T07:29:48.310Z,33.18
2023-04-13T07:31:53.607Z,33.13
2023-04-13T07:33:58.631Z,33.08
2023-04-13T07:36:03.719Z,33
2023-04-13T07:38:08.689Z,32.9
2023-04-13T07:40:13.694Z,32.93
2023-04-13T07:42:18.812Z,32.87
2023-04-13T07:44:23.868Z,32.8
2023-04-13T07:46:28.951Z,32.82
2023-04-13T07:48:33.987Z,32.82
2023-04-13T07:50:38.976Z,32.73
2023-04-13T07:52:44.125Z,32.73
2023-04-13T07:54:49.048Z,32.66
2023-04-13T07:56:54.122Z,32.56
2023-04-13T07:58:59.900Z,32.5
2023-04-13T08:01:05.204Z,32.44
2023-04-13T08:03:10.650Z,32.5
2023-04-13T08:05:16.387Z,32.48
2023-04-13T08:07:21.570Z,32.45
2023-04-13T08:09:26.635Z,32.31
2023-04-13T08:11:31.697Z,32.38
2023-04-13T08:13:36.718Z,32.35
2023-04-13T08:15:41.757Z,32.36
2023-04-13T08:17:46.942Z,32.32
2023-04-13T08:19:51.983Z,32.34
2023-04-13T08:21:57.125Z,32.32
2023-04-13T08:24:02.149Z,32.32
2023-04-13T08:26:07.172Z,32.31
2023-04-13T08:28:12.208Z,32.21
2023-04-13T08:30:17.221Z,32.19
2023-04-13T08:32:22.599Z,32.19
2023-04-13T08:34:27.646Z,32.18
2023-04-13T08:36:32.631Z,32.17
2023-04-13T08:38:39.402Z,32.15
2023-04-13T08:40:44.517Z,32.15
2023-04-13T08:42:49.688Z,32.13
2023-04-13T08:44:54.750Z,32.15
2023-04-13T08:46:59.722Z,32.08
2023-04-13T08:49:04.804Z,32.08
2023-04-13T08:51:09.780Z,32.07
2023-04-13T08:53:14.765Z,32.09
2023-04-13T08:55:19.761Z,32.04
2023-04-13T08:57:24.809Z,32.06
2023-04-13T08:59:29.910Z,32.05
2023-04-13T09:01:35.221Z,32.02
2023-04-13T09:03:40.930Z,32.02
2023-04-13T09:05:46.190Z,32.08
2023-04-13T09:07:51.209Z,32.02
2023-04-13T09:09:56.298Z,31.98
2023-04-13T09:12:01.261Z,31.95
2023-04-13T09:14:06.287Z,32
2023-04-13T09:16:11.291Z,31.95
2023-04-13T09:18:16.398Z,31.93
2023-04-13T09:20:21.801Z,31.99
2023-04-13T09:22:26.785Z,31.99
2023-04-13T09:24:31.753Z,32.01
2023-04-13T09:26:36.755Z,32.01
2023-04-13T09:28:41.749Z,31.98
2023-04-13T09:30:46.995Z,31.94
2023-04-13T09:32:52.163Z,31.99
2023-04-13T09:34:57.238Z,31.97
2023-04-13T09:37:04.366Z,31.96
2023-04-13T09:39:09.361Z,31.94
2023-04-13T09:41:14.402Z,31.97
2023-04-13T09:43:19.468Z,31.92
2023-04-13T09:45:24.509Z,31.94
2023-04-13T09:47:29.596Z,31.94
2023-04-13T09:49:34.884Z,31.92
2023-04-13T09:51:40.005Z,31.88
2023-04-13T09:53:45.056Z,31.86
2023-04-13T09:55:50.028Z,31.87
2023-04-13T09:57:55.033Z,31.87
2023-04-13T10:00:00.068Z,31.84
2023-04-13T10:02:05.372Z,31.81
2023-04-13T10:04:10.482Z,31.79
2023-04-13T10:06:15.489Z,31.8
2023-04-13T10:08:37.847Z,31.85
2023-04-13T10:10:43.602Z,31.88
2023-04-13T10:12:48.619Z,31.87
2023-04-13T10:14:53.621Z,31.91
2023-04-13T10:16:58.845Z,31.95
2023-04-13T10:19:04.293Z,31.87
2023-04-13T10:21:09.297Z,31.91
2023-04-13T10:23:14.296Z,31.95
2023-04-13T10:25:38.435Z,31.95
2023-04-13T10:27:44.782Z,31.95
2023-04-13T10:29:49.825Z,31.95
2023-04-13T10:31:54.999Z,31.9
2023-04-13T10:34:00.351Z,31.96
2023-04-13T10:36:05.503Z,31.98
2023-04-13T10:38:10.530Z,31.98
2023-04-13T10:40:15.583Z,31.97
2023-04-13T10:42:20.909Z,31.98
2023-04-13T10:44:25.930Z,32.08
2023-04-13T10:46:31.162Z,32.02
2023-04-13T10:48:36.213Z,32.01
2023-04-13T10:50:41.217Z,31.96
2023-04-13T10:52:46.231Z,32.04
2023-04-13T10:54:51.232Z,32.01
2023-04-13T10:56:56.236Z,31.96
2023-04-13T10:59:01.976Z,32.02
2023-04-13T11:01:07.068Z,32.02
2023-04-13T11:03:12.674Z,32.1
2023-04-13T11:05:17.924Z,32.02
2023-04-13T11:07:23.017Z,32.04
2023-04-13T11:09:28.012Z,32.07
2023-04-13T11:11:33.064Z,32.12
2023-04-13T11:13:38.098Z,32.07
2023-04-13T11:15:43.132Z,32.09
2023-04-13T11:17:48.454Z,32.12
2023-04-13T11:19:53.605Z,32.13
2023-04-13T11:21:58.601Z,32.08
2023-04-13T11:24:03.903Z,32.09
2023-04-13T11:26:08.907Z,32.05
2023-04-13T11:28:13.925Z,32.11
2023-04-13T11:30:18.932Z,32.08
2023-04-13T11:32:24.278Z,32.07
2023-04-13T11:34:29.376Z,32.06
2023-04-13T11:36:34.361Z,32.05
2023-04-13T11:38:39.380Z,31.99
2023-04-13T11:40:44.369Z,32.23
2023-04-13T11:42:49.404Z,32.27
2023-04-13T11:44:54.602Z,32.28
2023-04-13T11:46:59.629Z,32.34
2023-04-13T11:49:04.816Z,32.32
2023-04-13T11:51:09.880Z,32.35
2023-04-13T11:53:14.851Z,32.35
2023-04-13T11:55:25.984Z,32.35
2023-04-13T11:57:31.025Z,32.42
2023-04-13T11:59:36.120Z,32.42
2023-04-13T12:02:04.849Z,32.41
2023-04-13T12:04:18.822Z,32.39
2023-04-13T12:06:25.394Z,32.37
2023-04-13T12:08:32.190Z,32.34
2023-04-13T12:10:58.261Z,32.34
2023-04-13T12:13:33.447Z,32.42
2023-04-13T12:16:12.740Z,32.38
2023-04-13T12:18:37.202Z,32.34
2023-04-13T12:20:43.049Z,32.33
2023-04-13T12:23:08.297Z,32.36
2023-04-13T12:25:20.403Z,32.33
2023-04-13T12:27:26.707Z,32.38
2023-04-13T12:29:31.701Z,32.38
2023-04-13T12:31:36.953Z,32.4
2023-04-13T12:33:42.048Z,32.46
2023-04-13T12:35:47.058Z,32.45
2023-04-13T12:37:52.241Z,32.46
2023-04-13T12:39:57.274Z,32.51
2023-04-13T12:42:02.418Z,32.48
2023-04-13T12:44:07.566Z,32.48
2023-04-13T12:46:12.617Z,32.5
2023-04-13T12:48:17.772Z,32.48
2023-04-13T12:50:22.820Z,32.46
2023-04-13T12:52:27.850Z,32.47
2023-04-13T12:54:32.966Z,32.41
2023-04-13T12:56:38.004Z,32.46
2023-04-13T12:58:43.059Z,32.39
2023-04-13T13:00:48.221Z,32.39
2023-04-13T13:03:15.618Z,32.41
2023-04-13T13:05:21.121Z,32.45
2023-04-13T13:07:26.145Z,32.47
2023-04-13T13:09:31.113Z,32.54
2023-04-13T13:11:36.098Z,32.5
2023-04-13T13:13:41.107Z,32.53
2023-04-13T13:15:46.139Z,32.52
2023-04-13T13:17:51.337Z,32.53
2023-04-13T13:19:56.430Z,32.58
2023-04-13T13:22:01.417Z,32.63
2023-04-13T13:24:06.492Z,32.74
2023-04-13T13:28:25.685Z,32.99
2023-04-13T13:30:30.715Z,33.1
2023-04-13T13:32:36.551Z,33.06
2023-04-13T13:34:41.583Z,32.79
2023-04-13T13:36:46.708Z,33.24
2023-04-13T13:38:52.058Z,33.33
2023-04-13T13:40:57.071Z,33.45
2023-04-13T13:43:02.098Z,33.47
2023-04-13T13:45:07.392Z,33.6
2023-04-13T13:47:12.418Z,33.91
2023-04-13T13:49:17.422Z,33.99
2023-04-13T13:51:22.418Z,34.28
2023-04-13T13:53:27.428Z,34.7
2023-04-13T13:55:32.557Z,34.92
2023-04-13T13:57:37.648Z,34.79
2023-04-13T13:59:42.825Z,36.23
2023-04-13T14:01:48.128Z,36.66
2023-04-13T14:03:53.500Z,36.79
2023-04-13T14:05:58.576Z,36.8
2023-04-13T14:08:03.618Z,37.11
2023-04-13T14:10:08.748Z,36.47
2023-04-13T14:12:13.860Z,36.41
2023-04-13T14:14:24.678Z,36.28
2023-04-13T14:16:29.875Z,35.94
2023-04-13T14:18:35.234Z,35.92
2023-04-13T14:20:41.095Z,35.72
2023-04-13T14:22:46.078Z,35.71
2023-04-13T14:24:51.213Z,35.41
2023-04-13T14:26:56.370Z,35.48
2023-04-13T14:29:01.982Z,35.29
2023-04-13T14:31:07.181Z,35.25
2023-04-13T14:33:12.393Z,35.14
2023-04-13T14:35:17.436Z,35.15
2023-04-13T14:37:22.427Z,35.07
2023-04-13T14:39:27.518Z,34.99
2023-04-13T14:41:32.670Z,34.94
2023-04-13T14:43:37.682Z,34.82
2023-04-13T14:45:42.878Z,34.93
2023-04-13T14:47:48.411Z,34.93
2023-04-13T14:49:53.537Z,34.9
2023-04-13T14:51:58.773Z,34.87
2023-04-13T14:54:03.956Z,34.94
2023-04-13T14:56:09.000Z,34.96
2023-04-13T14:58:14.116Z,34.89
2023-04-13T15:00:19.233Z,34.95
2023-04-13T15:02:25.088Z,34.87
2023-04-13T15:04:31.239Z,34.68
2023-04-13T15:06:36.546Z,34.8
2023-04-13T15:08:41.623Z,34.74
2023-04-13T15:10:47.005Z,34.7
2023-04-13T15:12:52.212Z,34.84
2023-04-13T15:14:57.217Z,35.11
2023-04-13T15:17:02.599Z,35.05
2023-04-13T15:19:07.744Z,35.26
2023-04-13T15:21:12.840Z,35.13
2023-04-13T15:23:21.395Z,35.25
2023-04-13T15:25:26.580Z,35.12
2023-04-13T15:27:31.999Z,35.28
2023-04-13T15:29:37.048Z,35.13
2023-04-13T15:31:42.262Z,35.1
2023-04-13T15:33:47.376Z,35.18
2023-04-13T15:35:52.425Z,35.19
2023-04-13T15:37:57.624Z,35.14
2023-04-13T15:40:02.785Z,35.07
2023-04-13T15:42:07.934Z,35.09
2023-04-13T15:44:12.956Z,35.04
2023-04-13T15:46:18.245Z,35.04
2023-04-13T15:48:23.251Z,35.07
2023-04-13T15:50:28.321Z,35.02
2023-04-13T15:52:33.337Z,35.06
2023-04-13T15:54:38.514Z,35.14
2023-04-13T15:56:43.550Z,35.17
2023-04-13T15:58:48.534Z,35.2
2023-04-13T16:00:53.696Z,35.27
2023-04-13T16:02:59.335Z,35.13
2023-04-13T16:05:04.467Z,35.2
2023-04-13T16:07:18.379Z,35.26
2023-04-13T16:09:23.354Z,35.32
2023-04-13T16:11:31.277Z,35.34
2023-04-13T16:13:51.317Z,35.35
2023-04-13T16:15:56.534Z,35.37
2023-04-13T16:18:01.757Z,35.38
2023-04-13T16:20:06.978Z,35.33
2023-04-13T16:22:12.061Z,35.52
2023-04-13T16:24:17.064Z,35.67
2023-04-13T16:26:22.078Z,35.3
2023-04-13T16:28:27.100Z,34.95
2023-04-13T16:30:32.295Z,35.3
2023-04-13T16:32:37.683Z,35.3
2023-04-13T16:34:42.822Z,35.86
2023-04-13T16:36:47.986Z,35.91
2023-04-13T16:38:52.954Z,35.78
2023-04-13T16:40:58.069Z,35.69
2023-04-13T16:43:03.038Z,35.75
2023-04-13T16:45:08.074Z,35.75
2023-04-13T16:47:13.202Z,35.84
2023-04-13T16:49:18.251Z,35.78
2023-04-13T16:51:23.287Z,35.75
2023-04-13T16:53:28.224Z,35.9
2023-04-13T16:55:33.226Z,35.95
2023-04-13T16:57:38.306Z,36.07
2023-04-13T16:59:43.390Z,36.67
2023-04-13T17:01:48.466Z,36.33
2023-04-13T17:03:53.793Z,36.26
2023-04-13T17:05:59.013Z,36.26
2023-04-13T17:08:04.242Z,36.38
2023-04-13T17:10:09.309Z,36.63
2023-04-13T17:12:14.271Z,36.73
2023-04-13T17:14:19.295Z,36.75
2023-04-13T17:16:24.424Z,37.67
2023-04-13T17:18:29.533Z,37.86
2023-04-13T17:20:34.588Z,38.06
2023-04-13T17:22:39.572Z,37.68
2023-04-13T17:24:44.543Z,38.29
2023-04-13T17:26:49.519Z,38.27
2023-04-13T17:28:54.567Z,38.24
2023-04-13T17:30:59.495Z,38.42
2023-04-13T17:33:04.647Z,38.51
2023-04-13T17:35:09.756Z,38.64
2023-04-13T17:37:14.705Z,38.6
2023-04-13T17:39:19.724Z,39.04
2023-04-13T17:41:24.736Z,38.92
2023-04-13T17:43:29.733Z,38.65
2023-04-13T17:45:34.852Z,38.72
2023-04-13T17:47:39.981Z,38.68
2023-04-13T17:49:45.088Z,38.73
2023-04-13T17:51:50.167Z,38.94
2023-04-13T17:53:55.240Z,39.08
2023-04-13T17:56:00.309Z,39.3
2023-04-13T17:58:05.323Z,39.25
2023-04-13T18:00:10.438Z,39.46
2023-04-13T18:02:15.685Z,39.21
2023-04-13T18:04:21.425Z,35.64
2023-04-13T18:06:26.518Z,35.93
2023-04-13T18:08:31.510Z,36.21
2023-04-13T18:10:36.557Z,37.03
2023-04-13T18:12:41.696Z,35.1
2023-04-13T18:14:46.854Z,34.35
2023-04-13T18:16:51.856Z,34.54
2023-04-13T18:18:56.869Z,34.13
2023-04-13T18:21:01.874Z,34.09
2023-04-13T18:23:07.021Z,35.57
2023-04-13T18:25:12.200Z,33.99
2023-04-13T18:27:17.326Z,33.58
2023-04-13T18:29:22.322Z,33.58
2023-04-13T18:31:27.532Z,35.14
2023-04-13T18:33:32.609Z,34.07
2023-04-13T18:35:37.708Z,33.19
2023-04-13T18:37:42.688Z,32.93
2023-04-13T18:39:47.800Z,32.78
2023-04-13T18:41:52.825Z,34.52
2023-04-13T18:43:58.127Z,32.85
2023-04-13T18:46:03.454Z,34.24
2023-04-13T18:48:08.668Z,32.73
2023-04-13T18:50:13.720Z,32.66
2023-04-13T18:52:18.720Z,32.56
2023-04-13T18:54:23.708Z,32.6
2023-04-13T18:56:28.754Z,32.45
2023-04-13T18:58:33.772Z,32.31
2023-04-13T19:00:38.773Z,32.12
2023-04-13T19:02:44.502Z,32.37
2023-04-13T19:04:50.152Z,32.31
2023-04-13T19:06:55.178Z,32.7
2023-04-13T19:09:00.287Z,32.79
2023-04-13T19:11:05.338Z,34.36
2023-04-13T19:13:10.425Z,34.01
2023-04-13T19:15:15.541Z,34.21
2023-04-13T19:17:20.586Z,35.34
2023-04-13T19:19:25.630Z,34.33
2023-04-13T19:21:30.652Z,34.97
2023-04-13T19:23:37.118Z,33.69
2023-04-13T19:25:43.989Z,33.6
2023-04-13T19:27:48.970Z,33.81
2023-04-13T19:29:54.010Z,33.85
2023-04-13T19:31:59.213Z,33.74
2023-04-13T19:34:04.812Z,34.19
2023-04-13T19:36:09.820Z,32.4
2023-04-13T19:38:14.870Z,32.71
2023-04-13T19:40:19.915Z,33.87
2023-04-13T19:42:24.900Z,33.11
2023-04-13T19:44:29.920Z,32.92
2023-04-13T19:46:35.179Z,32.41
2023-04-13T19:48:40.181Z,32.74
2023-04-13T19:50:45.166Z,32.14
2023-04-13T19:52:50.141Z,31.99
2023-04-13T19:54:55.276Z,32.04
2023-04-13T19:57:00.347Z,32.02
2023-04-13T19:59:05.502Z,31.92
2023-04-13T20:01:10.641Z,32.05
2023-04-13T20:03:16.099Z,31.85
2023-04-13T20:05:21.230Z,31.79
2023-04-13T20:07:26.556Z,31.81
2023-04-13T20:09:31.681Z,32.1
2023-04-13T20:11:36.746Z,31.92
2023-04-13T20:13:41.777Z,31.77
2023-04-13T20:15:47.003Z,31.55
2023-04-13T20:17:52.241Z,31.51
2023-04-13T20:19:57.224Z,31.57
2023-04-13T20:22:02.266Z,31.58
2023-04-13T20:24:07.331Z,31.52
2023-04-13T20:26:12.430Z,31.58
2023-04-13T20:28:17.423Z,31.54
2023-04-13T20:30:22.427Z,31.58
2023-04-13T20:32:27.634Z,31.52
2023-04-13T20:34:32.675Z,31.47
2023-04-13T20:36:37.663Z,31.49
2023-04-13T20:38:42.774Z,31.63
2023-04-13T20:40:47.868Z,31.54
2023-04-13T20:42:52.898Z,31.49
2023-04-13T20:44:57.999Z,31.71
2023-04-13T20:47:03.419Z,32.04
2023-04-13T20:49:08.534Z,31.92
2023-04-13T20:51:13.514Z,31.94
2023-04-13T20:53:18.673Z,32.02
2023-04-13T20:55:23.702Z,31.89
2023-04-13T20:57:28.687Z,31.76
2023-04-13T20:59:33.806Z,31.63
2023-04-13T21:01:39.014Z,31.63
2023-04-13T21:03:44.737Z,31.68
2023-04-13T21:05:49.869Z,31.54
2023-04-13T21:07:57.767Z,31.56
2023-04-13T21:10:02.738Z,31.54
2023-04-13T21:12:07.735Z,31.48
2023-04-13T21:14:12.758Z,31.59
2023-04-13T21:16:17.942Z,31.61
2023-04-13T21:18:23.122Z,31.7
2023-04-13T21:20:28.132Z,31.69
2023-04-13T21:22:33.196Z,31.62
2023-04-13T21:24:38.309Z,31.56
2023-04-13T21:26:43.309Z,31.57
2023-04-13T21:28:48.386Z,31.61
2023-04-13T21:30:53.398Z,31.53
2023-04-13T21:32:58.748Z,31.6
2023-04-13T21:35:03.900Z,31.55
2023-04-13T21:37:08.921Z,31.53
2023-04-13T21:39:13.934Z,31.61
2023-04-13T21:41:18.990Z,31.59
2023-04-13T21:43:24.130Z,31.59
2023-04-13T21:45:29.132Z,31.6
2023-04-13T21:47:34.281Z,31.57
2023-04-13T21:49:39.307Z,31.65
2023-04-13T21:51:44.315Z,31.63
2023-04-13T21:53:49.329Z,31.58
2023-04-13T21:55:54.338Z,31.59
2023-04-13T21:57:59.411Z,31.66
2023-04-13T22:00:07.941Z,31.75
2023-04-13T22:02:13.235Z,31.68
2023-04-13T22:04:18.648Z,31.67
2023-04-13T22:06:23.767Z,31.63
2023-04-13T22:08:28.852Z,31.63
2023-04-13T22:10:33.906Z,31.62
2023-04-13T22:12:38.955Z,31.58
2023-04-13T22:14:44.021Z,31.53
2023-04-13T22:16:51.077Z,31.52
2023-04-13T22:18:56.100Z,31.53
2023-04-13T22:21:01.141Z,31.56
2023-04-13T22:23:06.225Z,31.59
2023-04-13T22:25:11.227Z,31.61
2023-04-13T22:27:16.320Z,31.59
2023-04-13T22:29:21.321Z,31.58
2023-04-13T22:31:26.514Z,31.6
2023-04-13T22:33:31.631Z,31.66
2023-04-13T22:35:36.987Z,31.62
2023-04-13T22:37:41.995Z,31.69
2023-04-13T22:39:47.117Z,31.67
2023-04-13T22:41:52.191Z,31.69
2023-04-13T22:43:57.164Z,31.74
2023-04-13T22:46:02.385Z,31.67
2023-04-13T22:48:07.871Z,31.69
2023-04-13T22:50:12.958Z,31.76
2023-04-13T22:52:17.978Z,31.8
2023-04-13T22:54:22.943Z,31.86
2023-04-13T22:56:27.912Z,31.89
2023-04-13T22:58:32.894Z,31.95
2023-04-13T23:00:37.879Z,32.07
2023-04-13T23:02:43.898Z,32.02
2023-04-13T23:04:49.368Z,32.06
2023-04-13T23:06:54.468Z,31.96
2023-04-13T23:09:00.364Z,31.92
2023-04-13T23:11:05.436Z,31.92
2023-04-13T23:13:10.441Z,31.94
2023-04-13T23:15:15.433Z,31.94
2023-04-13T23:17:20.546Z,31.96
2023-04-13T23:19:25.610Z,31.92
2023-04-13T23:21:30.569Z,31.95
2023-04-13T23:23:35.710Z,31.94
2023-04-13T23:25:40.706Z,31.94
2023-04-13T23:27:45.696Z,31.9
2023-04-13T23:29:50.686Z,31.9
2023-04-13T23:31:56.057Z,31.86
2023-04-13T23:34:01.106Z,31.9
2023-04-13T23:36:06.194Z,31.92
2023-04-13T23:38:11.158Z,31.96
2023-04-13T23:40:16.345Z,31.91
2023-04-13T23:42:21.532Z,31.86
2023-04-13T23:44:26.711Z,31.85
2023-04-13T23:46:31.671Z,31.94
2023-04-13T23:48:36.693Z,31.84
2023-04-13T23:50:41.713Z,31.79
2023-04-13T23:52:46.673Z,31.87
2023-04-13T23:54:51.709Z,31.8
2023-04-13T23:56:56.689Z,31.79
2023-04-13T23:59:02.358Z,31.83
